sensor_id;sensor_type;location;lat;lon;timestamp;pressure;altitude;pressure_sealevel;temperature;humidity
78741;BME280;68062;48.726;9.370;2023-02-21T16:51:00;98637.09;;;20.17;66.52
78741;BME280;68062;48.726;9.370;2023-02-21T16:56:53;98628.78;;;19.43;45.65
78741;BME280;68062;48.726;9.370;2023-02-21T16:59:21;98637.16;;;18.59;45.57
78741;BME280;68062;48.726;9.370;2023-02-21T17:01:50;98638.28;;;17.76;47.40
78741;BME280;68062;48.726;9.370;2023-02-21T17:04:19;98637.28;;;16.96;48.43
78741;BME280;68062;48.726;9.370;2023-02-21T17:06:50;98644.91;;;16.09;50.54
78741;BME280;68062;48.726;9.370;2023-02-21T17:09:19;98650.50;;;15.18;53.17
78741;BME280;68062;48.726;9.370;2023-02-21T17:11:46;98649.88;;;15.07;53.50
78741;BME280;68062;48.726;9.370;2023-02-21T17:14:15;98643.94;;;14.61;53.93
78741;BME280;68062;48.726;9.370;2023-02-21T17:16:42;98652.22;;;14.33;53.81
78741;BME280;68062;48.726;9.370;2023-02-21T17:19:11;98652.56;;;14.14;55.01
78741;BME280;68062;48.726;9.370;2023-02-21T17:21:38;98651.28;;;13.90;55.46
78741;BME280;68062;48.726;9.370;2023-02-21T17:24:05;98651.25;;;13.91;54.88
78741;BME280;68062;48.726;9.370;2023-02-21T17:26:31;98663.22;;;13.40;57.70
78741;BME280;68062;48.726;9.370;2023-02-21T17:28:58;98654.41;;;13.56;57.04
78741;BME280;68062;48.726;9.370;2023-02-21T17:31:26;98660.47;;;13.54;56.54
78741;BME280;68062;48.726;9.370;2023-02-21T17:33:52;98673.44;;;13.50;56.94
78741;BME280;68062;48.726;9.370;2023-02-21T17:36:20;98666.72;;;13.36;57.24
78741;BME280;68062;48.726;9.370;2023-02-21T17:38:48;98665.09;;;13.31;58.00
78741;BME280;68062;48.726;9.370;2023-02-21T17:41:14;98667.72;;;13.26;58.91
78741;BME280;68062;48.726;9.370;2023-02-21T17:43:41;98667.88;;;13.17;58.82
78741;BME280;68062;48.726;9.370;2023-02-21T17:46:08;98668.81;;;13.13;58.91
78741;BME280;68062;48.726;9.370;2023-02-21T17:48:36;98676.91;;;12.83;59.31
78741;BME280;68062;48.726;9.370;2023-02-21T17:51:03;98672.25;;;12.40;60.95
78741;BME280;68062;48.726;9.370;2023-02-21T17:53:30;98679.66;;;12.68;60.30
78741;BME280;68062;48.726;9.370;2023-02-21T17:55:56;98681.34;;;12.72;59.85
78741;BME280;68062;48.726;9.370;2023-02-21T17:58:24;98680.44;;;12.76;59.42
78741;BME280;68062;48.726;9.370;2023-02-21T18:00:50;98682.19;;;12.75;59.48
78741;BME280;68062;48.726;9.370;2023-02-21T18:03:19;98679.66;;;12.68;59.65
78741;BME280;68062;48.726;9.370;2023-02-21T18:05:47;98678.91;;;12.59;60.10
78741;BME280;68062;48.726;9.370;2023-02-21T18:08:15;98684.03;;;12.62;60.35
78741;BME280;68062;48.726;9.370;2023-02-21T18:10:43;98681.47;;;12.59;60.27
78741;BME280;68062;48.726;9.370;2023-02-21T18:13:10;98684.97;;;12.55;59.87
78741;BME280;68062;48.726;9.370;2023-02-21T18:15:37;98686.94;;;12.31;60.70
78741;BME280;68062;48.726;9.370;2023-02-21T18:18:03;98683.47;;;12.35;60.22
78741;BME280;68062;48.726;9.370;2023-02-21T18:20:31;98682.66;;;12.30;60.82
78741;BME280;68062;48.726;9.370;2023-02-21T18:23:00;98685.22;;;12.30;60.77
78741;BME280;68062;48.726;9.370;2023-02-21T18:25:30;98686.22;;;12.17;61.07
78741;BME280;68062;48.726;9.370;2023-02-21T18:27:57;98690.63;;;11.99;61.66
78741;BME280;68062;48.726;9.370;2023-02-21T18:30:23;98682.84;;;12.09;61.32
78741;BME280;68062;48.726;9.370;2023-02-21T18:32:50;98689.81;;;12.02;61.62
78741;BME280;68062;48.726;9.370;2023-02-21T18:35:17;98686.34;;;12.03;61.28
78741;BME280;68062;48.726;9.370;2023-02-21T18:37:44;98692.34;;;12.03;61.35
78741;BME280;68062;48.726;9.370;2023-02-21T18:40:13;98686.59;;;11.72;61.69
78741;BME280;68062;48.726;9.370;2023-02-21T18:42:40;98690.81;;;11.79;62.35
78741;BME280;68062;48.726;9.370;2023-02-21T18:45:07;98687.31;;;11.86;62.10
78741;BME280;68062;48.726;9.370;2023-02-21T18:47:35;98693.31;;;11.88;62.17
78741;BME280;68062;48.726;9.370;2023-02-21T18:50:02;98661.72;;;11.69;62.46
78741;BME280;68062;48.726;9.370;2023-02-21T18:52:29;98683.91;;;11.84;62.23
78741;BME280;68062;48.726;9.370;2023-02-21T18:54:55;98689.97;;;11.78;62.71
78741;BME280;68062;48.726;9.370;2023-02-21T18:57:29;98696.00;;;11.77;62.23
78741;BME280;68062;48.726;9.370;2023-02-21T18:59:56;98693.66;;;11.46;62.75
78741;BME280;68062;48.726;9.370;2023-02-21T19:02:23;98690.22;;;11.43;63.48
78741;BME280;68062;48.726;9.370;2023-02-21T19:04:49;98697.03;;;11.55;62.67
78741;BME280;68062;48.726;9.370;2023-02-21T19:07:16;98696.16;;;11.51;62.65
78741;BME280;68062;48.726;9.370;2023-02-21T19:09:44;98700.47;;;11.52;62.81
78741;BME280;68062;48.726;9.370;2023-02-21T19:12:11;98698.75;;;11.53;62.33
78741;BME280;68062;48.726;9.370;2023-02-21T19:14:39;98703.91;;;11.48;62.46
78741;BME280;68062;48.726;9.370;2023-02-21T19:17:06;98698.84;;;11.40;62.29
78741;BME280;68062;48.726;9.370;2023-02-21T19:19:33;98696.31;;;11.29;62.72
78741;BME280;68062;48.726;9.370;2023-02-21T19:21:59;98700.88;;;10.73;64.60
78741;BME280;68062;48.726;9.370;2023-02-21T19:24:26;98697.28;;;11.10;63.51
78741;BME280;68062;48.726;9.370;2023-02-21T19:26:53;98698.94;;;11.20;63.05
78741;BME280;68062;48.726;9.370;2023-02-21T19:29:19;98701.50;;;11.23;63.14
78741;BME280;68062;48.726;9.370;2023-02-21T19:31:47;98699.78;;;11.24;62.89
78741;BME280;68062;48.726;9.370;2023-02-21T19:34:14;98699.78;;;11.19;62.91
78741;BME280;68062;48.726;9.370;2023-02-21T19:36:40;98700.69;;;11.12;63.32
78741;BME280;68062;48.726;9.370;2023-02-21T19:39:07;98705.84;;;11.12;63.87
78741;BME280;68062;48.726;9.370;2023-02-21T19:41:36;98701.56;;;11.11;63.51
78741;BME280;68062;48.726;9.370;2023-02-21T19:44:03;98698.16;;;11.06;63.27
78741;BME280;68062;48.726;9.370;2023-02-21T19:46:30;98710.16;;;11.03;63.35
78741;BME280;68062;48.726;9.370;2023-02-21T19:48:58;98705.91;;;10.99;63.85
78741;BME280;68062;48.726;9.370;2023-02-21T19:51:26;98711.06;;;10.93;64.43
78741;BME280;68062;48.726;9.370;2023-02-21T19:53:53;98708.50;;;10.92;63.96
78741;BME280;68062;48.726;9.370;2023-02-21T19:56:23;98709.38;;;10.91;63.57
78741;BME280;68062;48.726;9.370;2023-02-21T19:58:50;98713.66;;;10.90;63.93
78741;BME280;68062;48.726;9.370;2023-02-21T20:01:17;98708.53;;;10.88;63.37
78741;BME280;68062;48.726;9.370;2023-02-21T20:03:45;98715.41;;;10.83;63.94
78741;BME280;68062;48.726;9.370;2023-02-21T20:06:14;98715.41;;;10.80;64.11
78741;BME280;68062;48.726;9.370;2023-02-21T20:08:41;98715.41;;;10.75;64.31
78741;BME280;68062;48.726;9.370;2023-02-21T20:11:12;98706.03;;;10.70;64.19
78741;BME280;68062;48.726;9.370;2023-02-21T20:13:38;98711.19;;;10.67;63.98
78741;BME280;68062;48.726;9.370;2023-02-21T20:16:06;98709.44;;;10.64;64.48
78741;BME280;68062;48.726;9.370;2023-02-21T20:18:32;98709.47;;;10.61;63.55
78741;BME280;68062;48.726;9.370;2023-02-21T20:20:59;98713.78;;;10.59;63.79
78741;BME280;68062;48.726;9.370;2023-02-21T20:23:27;98723.22;;;10.52;63.82
78741;BME280;68062;48.726;9.370;2023-02-21T20:25:53;98719.81;;;10.49;64.29
78741;BME280;68062;48.726;9.370;2023-02-21T20:28:19;98719.81;;;10.44;63.61
78741;BME280;68062;48.726;9.370;2023-02-21T20:30:46;98722.38;;;10.44;63.70
78741;BME280;68062;48.726;9.370;2023-02-21T20:33:12;98723.25;;;10.40;63.80
78741;BME280;68062;48.726;9.370;2023-02-21T20:35:40;98715.50;;;10.34;64.78
78741;BME280;68062;48.726;9.370;2023-02-21T20:38:07;98726.66;;;10.34;65.55
78741;BME280;68062;48.726;9.370;2023-02-21T20:40:36;98720.66;;;10.29;64.08
78741;BME280;68062;48.726;9.370;2023-02-21T20:43:02;98724.09;;;10.25;65.12
78741;BME280;68062;48.726;9.370;2023-02-21T20:45:29;98723.22;;;10.21;64.32
78741;BME280;68062;48.726;9.370;2023-02-21T20:47:56;98724.09;;;10.20;64.68
78741;BME280;68062;48.726;9.370;2023-02-21T20:50:22;98724.94;;;10.19;65.77
78741;BME280;68062;48.726;9.370;2023-02-21T20:52:50;98699.28;;;10.02;64.97
78741;BME280;68062;48.726;9.370;2023-02-21T20:55:16;98724.97;;;10.11;64.38
78741;BME280;68062;48.726;9.370;2023-02-21T20:57:48;98720.69;;;10.10;65.36
78741;BME280;68062;48.726;9.370;2023-02-21T21:00:15;98720.66;;;10.09;64.64
78741;BME280;68062;48.726;9.370;2023-02-21T21:02:44;98685.56;;;9.86;65.25
78741;BME280;68062;48.726;9.370;2023-02-21T21:05:11;98720.66;;;10.02;65.68
78741;BME280;68062;48.726;9.370;2023-02-21T21:07:40;98720.69;;;9.98;65.52
78741;BME280;68062;48.726;9.370;2023-02-21T21:10:07;98724.97;;;9.96;65.23
78741;BME280;68062;48.726;9.370;2023-02-21T21:12:36;98718.94;;;9.89;65.86
78741;BME280;68062;48.726;9.370;2023-02-21T21:15:05;98718.09;;;9.90;64.99
78741;BME280;68062;48.726;9.370;2023-02-21T21:17:34;98716.38;;;9.86;65.85
78741;BME280;68062;48.726;9.370;2023-02-21T21:20:01;98718.97;;;9.81;65.10
78741;BME280;68062;48.726;9.370;2023-02-21T21:22:29;98722.38;;;9.79;66.42
78741;BME280;68062;48.726;9.370;2023-02-21T21:24:56;98724.09;;;9.75;66.41
78741;BME280;68062;48.726;9.370;2023-02-21T21:27:22;98713.81;;;9.75;65.77
78741;BME280;68062;48.726;9.370;2023-02-21T21:29:50;98715.53;;;9.71;65.23
78741;BME280;68062;48.726;9.370;2023-02-21T21:32:22;98719.78;;;9.69;65.60
78741;BME280;68062;48.726;9.370;2023-02-21T21:34:50;98722.38;;;9.68;66.12
78741;BME280;68062;48.726;9.370;2023-02-21T21:37:19;98718.94;;;9.66;65.71
78741;BME280;68062;48.726;9.370;2023-02-21T21:39:47;98725.81;;;9.64;66.08
78741;BME280;68062;48.726;9.370;2023-02-21T21:42:15;98720.66;;;9.61;66.95
78741;BME280;68062;48.726;9.370;2023-02-21T21:44:44;98711.25;;;9.60;66.25
78741;BME280;68062;48.726;9.370;2023-02-21T21:47:11;98704.38;;;9.54;66.81
78741;BME280;68062;48.726;9.370;2023-02-21T21:49:41;98715.50;;;9.53;66.08
78741;BME280;68062;48.726;9.370;2023-02-21T21:52:09;98710.38;;;9.48;66.96
78741;BME280;68062;48.726;9.370;2023-02-21T21:54:35;98713.75;;;9.42;66.79
78741;BME280;68062;48.726;9.370;2023-02-21T21:57:04;98718.03;;;9.40;66.79
78741;BME280;68062;48.726;9.370;2023-02-21T21:59:31;98709.47;;;9.38;66.76
78741;BME280;68062;48.726;9.370;2023-02-21T22:02:02;98717.19;;;9.40;67.48
78741;BME280;68062;48.726;9.370;2023-02-21T22:04:28;98713.78;;;9.41;66.40
78741;BME280;68062;48.726;9.370;2023-02-21T22:06:56;98716.34;;;9.41;66.97
78741;BME280;68062;48.726;9.370;2023-02-21T22:09:23;98713.78;;;9.38;67.46
78741;BME280;68062;48.726;9.370;2023-02-21T22:11:50;98718.03;;;9.34;66.87
78741;BME280;68062;48.726;9.370;2023-02-21T22:14:19;98712.03;;;9.31;66.75
78741;BME280;68062;48.726;9.370;2023-02-21T22:16:48;98710.34;;;9.25;67.50
78741;BME280;68062;48.726;9.370;2023-02-21T22:19:15;98708.59;;;9.19;67.79
78741;BME280;68062;48.726;9.370;2023-02-21T22:21:42;98711.16;;;9.18;68.11
78741;BME280;68062;48.726;9.370;2023-02-21T22:24:10;98712.88;;;9.16;67.81
78741;BME280;68062;48.726;9.370;2023-02-21T22:26:39;98706.84;;;9.06;67.28
78741;BME280;68062;48.726;9.370;2023-02-21T22:29:09;98706.84;;;9.06;67.57
78741;BME280;68062;48.726;9.370;2023-02-21T22:31:36;98706.00;;;9.07;66.86
78741;BME280;68062;48.726;9.370;2023-02-21T22:34:03;98703.38;;;8.97;68.09
78741;BME280;68062;48.726;9.370;2023-02-21T22:36:29;98707.63;;;8.89;68.14
78741;BME280;68062;48.726;9.370;2023-02-21T22:38:57;98704.22;;;8.86;67.81
78741;BME280;68062;48.726;9.370;2023-02-21T22:41:29;98696.53;;;8.86;67.99
78741;BME280;68062;48.726;9.370;2023-02-21T22:43:56;98703.31;;;8.82;68.35
78741;BME280;68062;48.726;9.370;2023-02-21T22:46:25;98699.06;;;8.84;69.43
78741;BME280;68062;48.726;9.370;2023-02-21T22:48:52;98700.78;;;8.83;68.53
78741;BME280;68062;48.726;9.370;2023-02-21T22:51:24;98699.94;;;8.85;69.14
78741;BME280;68062;48.726;9.370;2023-02-21T22:53:51;98698.22;;;8.85;68.74
78741;BME280;68062;48.726;9.370;2023-02-21T22:56:20;98694.81;;;8.85;68.39
78741;BME280;68062;48.726;9.370;2023-02-21T22:58:50;98696.50;;;8.81;69.13
78741;BME280;68062;48.726;9.370;2023-02-21T23:01:19;98700.78;;;8.80;69.10
78741;BME280;68062;48.726;9.370;2023-02-21T23:03:51;98693.03;;;8.76;68.22
78741;BME280;68062;48.726;9.370;2023-02-21T23:06:17;98692.19;;;8.74;68.40
78741;BME280;68062;48.726;9.370;2023-02-21T23:08:46;98693.03;;;8.73;68.64
78741;BME280;68062;48.726;9.370;2023-02-21T23:11:16;98695.63;;;8.74;69.46
78741;BME280;68062;48.726;9.370;2023-02-21T23:13:43;98696.47;;;8.73;69.24
78741;BME280;68062;48.726;9.370;2023-02-21T23:16:17;98689.63;;;8.74;68.94
78741;BME280;68062;48.726;9.370;2023-02-21T23:18:44;98693.91;;;8.73;68.93
78741;BME280;68062;48.726;9.370;2023-02-21T23:21:12;98688.75;;;8.70;68.11
78741;BME280;68062;48.726;9.370;2023-02-21T23:23:38;98691.31;;;8.68;68.07
78741;BME280;68062;48.726;9.370;2023-02-21T23:26:05;98693.00;;;8.63;68.47
78741;BME280;68062;48.726;9.370;2023-02-21T23:28:33;98692.97;;;8.60;68.10
78741;BME280;68062;48.726;9.370;2023-02-21T23:30:59;98696.41;;;8.58;69.48
78741;BME280;68062;48.726;9.370;2023-02-21T23:33:29;98680.00;;;8.38;69.19
78741;BME280;68062;48.726;9.370;2023-02-21T23:35:58;98700.53;;;8.45;69.50
78741;BME280;68062;48.726;9.370;2023-02-21T23:38:26;98690.31;;;8.46;68.69
78741;BME280;68062;48.726;9.370;2023-02-21T23:40:55;98693.75;;;8.48;69.10
78741;BME280;68062;48.726;9.370;2023-02-21T23:43:23;98694.66;;;8.50;69.32
78741;BME280;68062;48.726;9.370;2023-02-21T23:45:50;98652.59;;;8.22;69.08
78741;BME280;68062;48.726;9.370;2023-02-21T23:48:17;98693.78;;;8.51;69.00
78741;BME280;68062;48.726;9.370;2023-02-21T23:50:46;98693.78;;;8.50;69.52
78741;BME280;68062;48.726;9.370;2023-02-21T23:53:15;98683.53;;;8.50;69.19
78741;BME280;68062;48.726;9.370;2023-02-21T23:55:42;98679.19;;;8.46;69.87
78741;BME280;68062;48.726;9.370;2023-02-21T23:58:11;98673.19;;;8.40;69.13
